createdAt,value
2018-05-31T00:01:57.522Z,9.88
2018-05-31T00:07:58.172Z,9.41
2018-05-31T00:11:58.715Z,9.04
2018-05-31T00:17:59.160Z,8.62
2018-05-31T00:21:59.737Z,10.39
2018-05-31T00:28:00.236Z,8.48
2018-05-31T00:34:00.752Z,6.6
2018-05-31T00:38:01.352Z,8.04
2018-05-31T00:44:01.748Z,7.64
2018-05-31T00:48:02.244Z,7.84
2018-05-31T00:50:02.807Z,8.9
2018-05-31T00:54:03.229Z,8.42
2018-05-31T01:00:04.541Z,7.34
2018-05-31T01:04:05.296Z,7.03
2018-05-31T01:10:05.842Z,7.12
2018-05-31T01:14:06.236Z,6.61
2018-05-31T01:16:06.707Z,8.24
2018-05-31T01:20:07.206Z,8.34
2018-05-31T01:26:07.766Z,7.18
2018-05-31T01:30:08.277Z,6.25
2018-05-31T01:36:08.758Z,5.82
2018-05-31T01:40:09.211Z,5.54
2018-05-31T01:42:09.810Z,6.93
2018-05-31T01:46:10.375Z,7.68
2018-05-31T01:52:10.887Z,6.08
2018-05-31T01:56:11.504Z,7.26
2018-05-31T02:02:12.040Z,6.64
2018-05-31T02:08:12.524Z,10.66
2018-05-31T02:12:13.079Z,11.61
2018-05-31T02:18:13.698Z,14.51
2018-05-31T02:22:14.183Z,12.9
2018-05-31T02:28:14.831Z,11.95
2018-05-31T02:34:15.308Z,8.35
2018-05-31T02:38:15.838Z,9.55
2018-05-31T02:48:17.795Z,9.97
2018-05-31T02:48:17.896Z,9.06
2018-05-31T02:50:18.412Z,8.4
2018-05-31T02:54:18.845Z,7.06
2018-05-31T03:00:19.693Z,5.96
2018-05-31T03:04:20.217Z,7.58
2018-05-31T03:10:20.737Z,8.78
2018-05-31T03:14:21.157Z,8.47
2018-05-31T03:16:21.621Z,9.21
2018-05-31T03:20:22.124Z,8.19
2018-05-31T03:26:22.701Z,7.86
2018-05-31T03:30:23.560Z,8.7
2018-05-31T03:36:24.039Z,9.37
2018-05-31T03:40:24.569Z,10.75
2018-05-31T03:42:25.045Z,11.73
2018-05-31T03:46:25.596Z,10.25
2018-05-31T03:52:26.084Z,11.2
2018-05-31T03:56:26.654Z,10.12
2018-05-31T04:02:27.160Z,15.62
2018-05-31T04:08:27.703Z,19.38
2018-05-31T04:12:28.211Z,20.63
2018-05-31T04:18:28.864Z,17.7
2018-05-31T04:22:29.395Z,19.23
2018-05-31T04:28:29.869Z,16.19
2018-05-31T04:34:30.366Z,19.36
2018-05-31T04:38:31.096Z,18.58
2018-05-31T04:44:31.662Z,21.25
2018-05-31T04:48:32.171Z,23.05
2018-05-31T04:50:32.650Z,27.42
2018-05-31T04:54:33.182Z,26.91
2018-05-31T05:00:34.459Z,22.36
2018-05-31T05:04:35.076Z,19.62
2018-05-31T05:10:35.632Z,10.89
2018-05-31T05:14:36.174Z,11.91
2018-05-31T05:16:36.618Z,7.95
2018-05-31T05:20:37.171Z,10.2
2018-05-31T05:26:37.618Z,12.31
2018-05-31T05:30:38.094Z,10.55
2018-05-31T05:36:38.722Z,7.5
2018-05-31T05:42:39.232Z,6.97
2018-05-31T05:46:39.897Z,7.12
2018-05-31T05:52:40.339Z,8.72
2018-05-31T05:56:40.852Z,8.48
2018-05-31T06:02:41.397Z,8.09
2018-05-31T06:08:41.977Z,8.27
2018-05-31T06:12:42.516Z,8.05
2018-05-31T06:18:43.186Z,9.1
2018-05-31T06:22:43.753Z,11.3
2018-05-31T06:28:44.291Z,11.23
2018-05-31T06:34:44.734Z,9.28
2018-05-31T06:38:45.226Z,8.77
2018-05-31T06:44:45.726Z,7.46
2018-05-31T06:48:46.192Z,7.91
2018-05-31T06:50:46.774Z,10.8
2018-05-31T06:54:47.289Z,10.29
2018-05-31T07:00:47.804Z,6.87
2018-05-31T07:04:48.217Z,8.63
2018-05-31T07:10:48.792Z,11.02
2018-05-31T07:14:49.234Z,8.72
2018-05-31T07:16:49.711Z,10.28
2018-05-31T07:20:50.255Z,11.53
2018-05-31T07:26:50.773Z,8.79
2018-05-31T07:30:51.262Z,9.96
2018-05-31T07:36:51.779Z,11.15
2018-05-31T07:42:52.343Z,11.43
2018-05-31T07:46:52.968Z,12.11
2018-05-31T07:52:53.444Z,13.24
2018-05-31T07:56:53.997Z,14.17
2018-05-31T08:02:54.662Z,16.21
2018-05-31T08:08:55.214Z,13.54
2018-05-31T08:12:55.654Z,14.42
2018-05-31T08:18:56.235Z,24.29
2018-05-31T08:22:56.796Z,19.14
2018-05-31T08:24:57.361Z,19.14
2018-05-31T08:28:57.880Z,18.16
2018-05-31T08:34:58.319Z,17.57
2018-05-31T08:38:58.902Z,18.89
2018-05-31T08:44:59.422Z,17.26
2018-05-31T08:49:00.061Z,16.91
2018-05-31T08:51:00.639Z,16.46
2018-05-31T08:55:00.990Z,18.89
2018-05-31T09:01:01.480Z,17.94
2018-05-31T09:05:01.966Z,17.04
2018-05-31T09:11:02.577Z,17.06
2018-05-31T09:17:03.129Z,19.56
2018-05-31T09:21:03.717Z,18.67
2018-05-31T09:27:04.263Z,15.92
2018-05-31T09:31:04.828Z,18.06
2018-05-31T09:37:05.564Z,18.47
2018-05-31T09:43:06.085Z,19.7
2018-05-31T09:47:06.636Z,19.08
2018-05-31T09:53:07.269Z,20.56
2018-05-31T09:57:07.725Z,20.76
2018-05-31T09:59:08.207Z,17.99
2018-05-31T10:03:08.709Z,20.36
2018-05-31T10:09:09.185Z,19.55
2018-05-31T10:13:09.806Z,20.7
2018-05-31T10:19:10.394Z,18.3
2018-05-31T10:23:10.843Z,21.36
2018-05-31T10:25:11.371Z,17.94
2018-05-31T10:29:11.942Z,18.79
2018-05-31T10:35:12.481Z,18.09
2018-05-31T10:39:13.011Z,19.55
2018-05-31T10:45:13.973Z,18.57
2018-05-31T10:49:14.474Z,20.96
2018-05-31T10:51:14.893Z,19.46
2018-05-31T10:55:15.420Z,18.92
2018-05-31T11:01:16.095Z,17.7
2018-05-31T11:05:16.979Z,14.92
2018-05-31T11:11:16.997Z,16.86
2018-05-31T11:17:17.437Z,15.4
2018-05-31T11:27:19.363Z,13.86
2018-05-31T11:27:19.390Z,18.46
2018-05-31T11:31:19.988Z,13.35
2018-05-31T11:37:20.517Z,16.58
2018-05-31T11:43:21.141Z,14.73
2018-05-31T11:47:21.665Z,15.58
2018-05-31T11:53:22.219Z,14.32
2018-05-31T11:57:22.719Z,14.97
2018-05-31T11:59:23.196Z,12.48
2018-05-31T12:03:23.692Z,16.52
2018-05-31T12:09:24.215Z,13.35
2018-05-31T12:13:24.650Z,15.6
2018-05-31T12:19:25.243Z,12.34
2018-05-31T12:23:25.731Z,15.17
2018-05-31T12:25:26.242Z,12.22
2018-05-31T12:29:26.761Z,14.15
2018-05-31T12:35:27.275Z,14.88
2018-05-31T12:39:27.791Z,17
2018-05-31T12:45:28.960Z,15.57
2018-05-31T12:51:29.494Z,15.8
2018-05-31T12:55:29.965Z,15.97
2018-05-31T13:01:30.425Z,12.57
2018-05-31T13:05:30.967Z,15.65
2018-05-31T13:11:31.433Z,14.51
2018-05-31T13:17:31.943Z,11.66
2018-05-31T13:21:32.515Z,13.88
2018-05-31T13:27:32.998Z,11.51
2018-05-31T13:31:33.560Z,12.27
2018-05-31T13:33:34.034Z,12.83
2018-05-31T13:37:34.626Z,14.9
2018-05-31T13:43:35.313Z,14.39
2018-05-31T13:47:35.849Z,15.2
2018-05-31T13:53:36.434Z,12.15
2018-05-31T13:57:37.043Z,13.13
2018-05-31T13:59:37.474Z,10.2
2018-05-31T14:03:38.047Z,10.5
2018-05-31T14:09:38.563Z,10.47
2018-05-31T14:13:39.195Z,12.15
2018-05-31T14:19:39.825Z,12.62
2018-05-31T14:25:40.358Z,11.7
2018-05-31T14:29:40.834Z,14.12
2018-05-31T14:35:41.333Z,12.81
2018-05-31T14:39:41.868Z,13.82
2018-05-31T14:45:42.359Z,12.81
2018-05-31T14:51:42.821Z,10.64
2018-05-31T14:55:43.314Z,11.04
2018-05-31T15:01:43.945Z,10.76
2018-05-31T15:05:44.451Z,10.73
2018-05-31T15:07:44.797Z,11.96
2018-05-31T15:11:45.343Z,15.31
2018-05-31T15:17:45.727Z,10
2018-05-31T15:21:46.287Z,11.91
2018-05-31T15:27:46.894Z,9.63
2018-05-31T15:31:47.439Z,10.57
2018-05-31T15:33:47.812Z,10.42
2018-05-31T15:37:48.346Z,11.87
2018-05-31T15:43:48.831Z,12.25
2018-05-31T15:47:49.308Z,12.35
2018-05-31T15:53:49.869Z,10.25
2018-05-31T15:59:50.446Z,9.89
2018-05-31T16:03:51.045Z,10.8
2018-05-31T16:09:51.590Z,9.34
2018-05-31T16:13:52.167Z,9.39
2018-05-31T16:19:52.751Z,10.09
2018-05-31T16:25:53.303Z,7.38
2018-05-31T16:29:53.760Z,9.33
2018-05-31T16:35:54.249Z,11.12
2018-05-31T16:39:54.779Z,10.91
2018-05-31T16:41:55.232Z,7.67
2018-05-31T16:45:55.819Z,8.74
2018-05-31T16:51:56.341Z,7.62
2018-05-31T16:55:57.072Z,9.74
2018-05-31T17:01:57.601Z,9.98
2018-05-31T17:05:58.177Z,10.55
2018-05-31T17:07:58.609Z,11.09
2018-05-31T17:11:59.198Z,10.97
2018-05-31T17:17:59.796Z,9.7
2018-05-31T17:22:00.369Z,13.49
2018-05-31T17:28:00.960Z,9.54
2018-05-31T17:32:01.424Z,8.43
2018-05-31T17:34:01.847Z,7.13
2018-05-31T17:38:02.367Z,8.37
2018-05-31T17:44:02.939Z,8.63
2018-05-31T17:54:04.998Z,7.69
2018-05-31T17:54:05.116Z,9.06
2018-05-31T18:00:05.755Z,8.39
2018-05-31T18:04:06.289Z,9.49
2018-05-31T18:10:06.937Z,13.91
2018-05-31T18:14:07.472Z,13.29
2018-05-31T18:20:08.062Z,14.6
2018-05-31T18:26:08.535Z,14.92
2018-05-31T18:30:09.537Z,11.73
2018-05-31T18:36:10.099Z,12.71
2018-05-31T18:40:10.662Z,15.23
2018-05-31T18:42:11.165Z,12.34
2018-05-31T18:46:11.753Z,12.74
2018-05-31T18:52:12.266Z,11.88
2018-05-31T18:56:12.737Z,11.75
2018-05-31T19:02:13.248Z,9.49
2018-05-31T19:06:13.749Z,11.72
2018-05-31T19:08:14.275Z,10.39
2018-05-31T19:12:14.957Z,12.27
2018-05-31T19:18:15.471Z,9.1
2018-05-31T19:22:16.059Z,9.65
2018-05-31T19:28:16.695Z,10.27
2018-05-31T19:34:17.124Z,8.52
2018-05-31T19:38:17.661Z,7.75
2018-05-31T19:44:18.141Z,7.88
2018-05-31T19:48:18.691Z,8.28
2018-05-31T19:54:19.318Z,8.64
2018-05-31T20:00:20.172Z,9.88
2018-05-31T20:04:20.712Z,7.08
2018-05-31T20:10:21.221Z,8.91
2018-05-31T20:14:21.813Z,9.09
2018-05-31T20:16:22.233Z,7.07
2018-05-31T20:20:22.851Z,8.71
2018-05-31T20:26:23.405Z,11.18
2018-05-31T20:30:24.341Z,7.93
2018-05-31T20:36:24.916Z,6.94
2018-05-31T20:40:25.461Z,7.18
2018-05-31T20:42:25.899Z,9.31
2018-05-31T20:46:26.384Z,8.33
2018-05-31T20:52:26.861Z,7.88
2018-05-31T20:56:27.393Z,7.65
2018-05-31T21:02:27.947Z,9.64
2018-05-31T21:06:28.506Z,7.31
2018-05-31T21:08:28.988Z,8.01
2018-05-31T21:12:29.514Z,7.58
2018-05-31T21:18:30.056Z,9.37
2018-05-31T21:22:30.597Z,9.3
2018-05-31T21:28:31.168Z,7.83
2018-05-31T21:34:31.705Z,8.05
2018-05-31T21:38:32.164Z,9.88
2018-05-31T21:44:32.759Z,8.09
2018-05-31T21:48:33.328Z,7.01
2018-05-31T21:54:33.893Z,8.51
2018-05-31T22:00:34.271Z,7.06
2018-05-31T22:04:34.802Z,8.66
2018-05-31T22:10:35.320Z,9.64
2018-05-31T22:14:35.956Z,8.91
2018-05-31T22:16:36.368Z,9.9
2018-05-31T22:20:36.966Z,9.11
2018-05-31T22:26:37.487Z,11.2
2018-05-31T22:30:38.014Z,10.03
2018-05-31T22:36:38.563Z,8.85
2018-05-31T22:40:39.698Z,8.36
2018-05-31T22:42:40.154Z,8.61
2018-05-31T22:46:40.721Z,7.84
2018-05-31T22:52:41.275Z,8.68
2018-05-31T22:56:41.822Z,8.79
2018-05-31T23:02:42.539Z,9.56
2018-05-31T23:06:43.014Z,8.78
2018-05-31T23:08:43.482Z,8.56
2018-05-31T23:12:43.985Z,9.94
2018-05-31T23:18:44.555Z,8.83
2018-05-31T23:22:45.095Z,9.17
2018-05-31T23:28:45.547Z,7.75
2018-05-31T23:34:46.053Z,7.7
2018-05-31T23:38:46.633Z,8.72
2018-05-31T23:44:47.129Z,7.2
2018-05-31T23:48:47.698Z,9.49
2018-05-31T23:54:48.225Z,9.29
